DADOS DO TEMPO

HOJE
Time Temp. Dewp. Hum. Bar. 1h Prec. 24h Prec.
00:08 12.3 10.4 88 1015.8 0.0000 0.0000
00:18 12.3 10.4 88 1015.8 0.0000 0.0000
00:28 12.2 10.3 88 1015.8 0.0000 0.0000
00:38 12.2 10.1 87 1015.8 0.0000 0.0000
00:48 12.2 10.1 87 1015.9 0.0000 0.0000
00:58 12.2 10.3 88 1015.9 0.0000 0.0000
01:08 12.2 10.3 88 1015.9 0.0000 0.0000
01:19 12.2 10.3 88 1015.9 0.0000 0.0000
01:29 12.2 10.3 88 1016 0.0000 0.0000
01:38 12.2 10.3 88 1016.1 0.0000 0.0000
01:48 12.2 10.3 88 1016 0.0000 0.0000
01:59 12.1 10.2 88 1016 0.0000 0.0000
02:09 12.1 10.2 88 1016 0.0000 0.0000
02:19 12.1 10.2 88 1016.1 0.0000 0.0000
02:29 12.1 10.2 88 1016.1 0.0000 0.0000
02:39 12.1 10.2 88 1016.1 0.0000 0.0000
02:49 12.1 10.2 88 1016.1 0.0000 0.0000
02:59 12.1 10.2 88 1016.1 0.0000 0.0000
03:09 12.1 10.2 88 1016.1 0.0000 0.0000
03:19 12.1 10.2 88 1016.1 0.0000 0.0000
03:29 12.1 10.2 88 1016.1 0.0000 0.0000
03:40 12 10.1 88 1016 0.0000 0.0000
03:50 12 10.1 88 1016 0.0000 0.0000
03:59 12 10.1 88 1016 0.0000 0.0000
04:09 12 10.1 88 1016 0.0000 0.0000
04:20 12 10.1 88 1016 0.0000 0.0000
04:30 12 10.1 88 1015.9 0.0000 0.0000
04:39 11.9 10 88 1015.9 0.0000 0.0000
04:50 11.9 10 88 1015.9 0.0000 0.0000
05:00 11.9 10 88 1015.9 0.0000 0.0000
05:10 11.9 10 88 1015.9 0.0000 0.0000
05:20 11.8 9.9 88 1015.9 0.0000 0.0000
05:30 11.7 9.8 88 1015.9 0.0000 0.0000
05:40 11.7 9.8 88 1015.9 0.0000 0.0000
05:50 11.7 9.8 88 1016 0.0000 0.0000
06:00 11.7 9.8 88 1015.9 0.0000 0.0000
06:11 11.6 9.7 88 1016 0.1010 0.1000
06:20 11.6 9.7 88 1016 0.1010 0.1000
06:30 11.6 9.7 88 1016 0.1010 0.1000
06:41 11.5 9.6 88 1016 0.1010 0.1000
06:51 11.5 9.6 88 1016 0.1010 0.1000
07:01 11.4 9.5 88 1016 0.0000 0.1000
07:11 11.4 9.5 88 1016.1 0.0000 0.1000
07:21 11.5 9.6 88 1016.1 0.0000 0.1000
07:31 11.5 9.6 88 1016.1 0.0000 0.1000
07:41 11.6 9.7 88 1016.1 0.0000 0.1000
07:51 11.7 9.8 88 1016.1 0.0000 0.1000
08:01 11.8 9.9 88 1016.1 0.0000 0.1000
08:11 12 10.1 88 1016.2 0.0000 0.1000
08:21 12.2 10.3 88 1016.2 0.0000 0.1000
08:32 12.5 10.6 88 1016.2 0.0000 0.1000
08:41 12.7 10.8 88 1016.2 0.0000 0.1000
08:51 13 11.1 88 1016.2 0.0000 0.1000
09:02 13.2 11.3 88 1016.2 0.0000 0.1000
09:12 13.3 11.4 88 1016.2 0.0000 0.1000
09:22 13.5 11.6 88 1016.3 0.0000 0.1000
09:32 13.6 11.7 88 1016.4 0.0000 0.1000
09:42 13.9 11.9 88 1016.4 0.0000 0.1000
09:52 14.3 12.2 87 1016.5 0.0000 0.1000
10:02 14.7 12.6 87 1016.6 0.0000 0.1000
10:13 15.1 13 87 1016.6 0.0000 0.1000
10:22 15.4 13.2 87 1016.8 0.0000 0.1000
10:32 15.7 13.5 87 1016.8 0.0000 0.1000
10:42 15.9 13.7 87 1016.9 0.0000 0.1000
10:53 16.1 13.8 86 1017 0.0000 0.1000
11:02 16.3 14 86 1017 0.0000 0.1000
11:12 16.3 14 86 1017.1 0.0000 0.1000

ESTATÍSTICAS DO DIA

2021-09-20
TEMPERATURA
MÉDIA
12.6
MÁXIMO
16.3
11:02
MÍNIMO
11.4
07:01
PRESSÃO
MÉDIA
1016.1
MÁXIMO
1017.1
11:12
MÍNIMO
1015.8
00:08
PONTO DE ORVALHO
MÉDIA
10.6
MÁXIMO
14.0
11:02
MÍNIMO
9.5
07:01
UMIDADE
MÉDIA
88
MÁXIMO
88
00:08
MÍNIMO
86
10:53
PRECIPITAÇÃO
PRECIPITAÇÃO HORÁRIA
0.1
PRECIPITAÇÃO DIÁRIA
0.1
TEMPERATURA (°C)
MÍNIMO
11.4
MÁXIMO
16.3
MÉDIA
12.6
PRESSÃO (hpa)
MÍNIMO
1015.8
MÁXIMO
1017.1
MÉDIA
1016.1
DEVICE